Time;durP1;ratioP1;P1;durP2;ratioP2;P2;SDS_P1;SDS_P2;PMS_P1;PMS_P2;Temp;Humidity;BMP_temperature;BMP_pressure;BME280_temperature;BME280_humidity;BME280_pressure;Samples;Min_cycle;Max_cycle;Signal;HPM_P1;HPM_P2
2021/12/14 00:01:52;;;;;;;108.57;27.15;;;;;;;4.18;100.00;97093.56;20549226;28;20096;-74
2021/12/14 00:22:23;;;;;;;108.07;27.38;;;;;;;4.19;100.00;97087.31;20404567;28;20515;-74
2021/12/14 00:32:29;;;;;;;148.35;27.77;;;;;;;4.17;100.00;97077.06;20394117;28;20055;-74
2021/12/14 00:42:29;;;;;;;89.73;23.17;;;;;;;4.16;100.00;97077.28;20389205;28;20035;-73
2021/12/14 00:52:30;;;;;;;146.65;27.67;;;;;;;4.10;100.00;97092.06;20409868;28;20856;-74
2021/12/14 01:02:30;;;;;;;102.65;25.45;;;;;;;4.13;100.00;97085.59;20393207;28;20051;-73
2021/12/14 01:12:46;;;;;;;158.70;28.17;;;;;;;4.12;100.00;97070.88;20417864;28;20472;-74
2021/12/14 01:22:54;;;;;;;260.80;32.83;;;;;;;4.09;100.00;97061.66;20408288;28;20049;-74
2021/12/14 01:33:00;;;;;;;93.93;23.70;;;;;;;4.10;100.00;97086.81;20430227;28;20051;-74
2021/12/14 01:43:00;;;;;;;139.47;26.73;;;;;;;4.09;100.00;97100.97;20438610;28;20050;-74
2021/12/14 01:53:03;;;;;;;198.60;30.48;;;;;;;4.09;100.00;97119.31;20413653;28;20169;-74
2021/12/14 02:03:06;;;;;;;79.10;25.10;;;;;;;4.13;100.00;97111.81;20418248;28;20047;-73
2021/12/14 02:13:07;;;;;;;81.35;25.85;;;;;;;4.02;100.00;97102.88;20428234;28;20042;-74
2021/12/14 02:23:09;;;;;;;252.10;35.72;;;;;;;4.04;100.00;97106.06;20409176;28;21516;-74
2021/12/14 02:33:17;;;;;;;107.28;25.80;;;;;;;4.05;100.00;97107.69;20418417;28;20051;-73
2021/12/14 02:43:19;;;;;;;98.00;25.77;;;;;;;4.02;100.00;97090.59;20413330;28;20495;-73
2021/12/14 02:53:19;;;;;;;135.75;27.63;;;;;;;4.00;100.00;97091.81;20409779;28;20206;-74
2021/12/14 03:03:20;;;;;;;119.95;26.38;;;;;;;3.95;100.00;97065.47;20451253;28;20233;-74
2021/12/14 03:13:24;;;;;;;161.47;29.67;;;;;;;3.94;100.00;97062.06;20399858;28;21097;-73
2021/12/14 03:23:32;;;;;;;155.25;28.58;;;;;;;3.95;100.00;97049.75;20394595;28;20307;-76
2021/12/14 03:33:38;;;;;;;200.75;32.53;;;;;;;3.95;100.00;97024.34;20427286;28;20051;-74
2021/12/14 03:43:43;;;;;;;187.33;28.10;;;;;;;4.01;100.00;97006.91;20418656;28;20030;-74
2021/12/14 03:53:43;;;;;;;186.15;30.25;;;;;;;3.92;100.00;96976.78;20426578;28;20485;-73
2021/12/14 04:03:47;;;;;;;183.15;27.30;;;;;;;3.92;100.00;96979.41;20396652;28;20047;-73
2021/12/14 04:24:22;;;;;;;90.53;23.95;;;;;;;3.86;100.00;96969.84;20416899;28;20487;-74
2021/12/14 04:34:23;;;;;;;115.95;25.17;;;;;;;3.93;100.00;96978.41;20402823;28;20183;-76
2021/12/14 04:54:47;;;;;;;137.93;26.90;;;;;;;3.82;100.00;96977.34;20410922;28;20042;-74
2021/12/14 05:04:47;;;;;;;68.03;19.63;;;;;;;3.79;100.00;96975.19;20447328;28;21489;-73
2021/12/14 05:14:48;;;;;;;106.72;23.73;;;;;;;3.78;100.00;96979.63;20409707;28;20070;-73
2021/12/14 05:24:56;;;;;;;170.63;25.33;;;;;;;3.77;100.00;96980.63;20409093;28;20098;-74
2021/12/14 05:34:56;;;;;;;124.93;23.02;;;;;;;3.80;100.00;96997.72;20407929;28;21088;-75
2021/12/14 05:45:00;;;;;;;93.03;22.40;;;;;;;3.76;100.00;97010.50;20401861;28;20103;-74
2021/12/14 05:55:01;;;;;;;59.03;15.90;;;;;;;3.71;100.00;97041.00;20376446;28;20051;-74
2021/12/14 06:05:02;;;;;;;88.10;18.92;;;;;;;3.68;100.00;97052.72;20434389;28;20059;-74
2021/12/14 06:15:05;;;;;;;59.20;15.65;;;;;;;3.74;100.00;97057.09;20388410;28;20035;-73
2021/12/14 06:25:14;;;;;;;80.85;16.40;;;;;;;3.69;100.00;97050.91;20385993;28;20739;-73
2021/12/14 06:35:37;;;;;;;39.47;12.43;;;;;;;3.66;100.00;97052.16;20421345;28;20502;-77
2021/12/14 06:45:42;;;;;;;30.02;9.38;;;;;;;3.62;100.00;97037.91;20456043;28;20503;-73
2021/12/14 06:55:43;;;;;;;31.08;11.07;;;;;;;3.63;100.00;97036.88;20432044;28;20126;-74
2021/12/14 07:05:47;;;;;;;39.83;12.83;;;;;;;3.61;100.00;97046.78;20441727;28;20038;-74
2021/12/14 07:15:48;;;;;;;39.50;13.48;;;;;;;3.63;100.00;97057.81;20442938;28;20306;-72
2021/12/14 07:26:17;;;;;;;41.67;13.18;;;;;;;3.56;100.00;97065.78;20394295;28;20043;-73
2021/12/14 07:36:26;;;;;;;31.58;11.13;;;;;;;3.57;100.00;97071.81;20380847;28;20047;-72
2021/12/14 07:46:44;;;;;;;35.00;13.77;;;;;;;3.58;100.00;97076.03;20411819;28;20402;-75
2021/12/14 07:56:53;;;;;;;33.80;13.00;;;;;;;3.65;100.00;97095.09;20428896;28;20044;-76
2021/12/14 08:06:55;;;;;;;33.38;13.48;;;;;;;3.68;100.00;97097.28;20411523;28;20126;-75
2021/12/14 08:16:57;;;;;;;45.38;17.02;;;;;;;3.70;100.00;97095.22;20439855;28;20499;-76
2021/12/14 08:27:00;;;;;;;48.47;17.40;;;;;;;3.78;100.00;97122.94;20437636;28;20051;-76
2021/12/14 08:37:09;;;;;;;51.75;17.70;;;;;;;3.79;100.00;97138.44;20418921;28;20055;-75
2021/12/14 08:47:13;;;;;;;34.72;13.55;;;;;;;3.79;100.00;97138.44;20404802;28;20518;-75
2021/12/14 08:57:25;;;;;;;15.18;6.30;;;;;;;3.78;100.00;97147.34;20388520;28;20365;-76
2021/12/14 09:07:28;;;;;;;13.55;5.60;;;;;;;3.86;100.00;97158.53;20414274;28;20047;-76
2021/12/14 09:17:29;;;;;;;10.82;4.28;;;;;;;3.88;100.00;97169.59;20406835;28;20047;-76
2021/12/14 09:27:32;;;;;;;7.68;2.78;;;;;;;3.86;100.00;97176.88;20421460;28;20545;-75
2021/12/14 09:37:33;;;;;;;6.68;2.80;;;;;;;3.85;100.00;97196.25;20388596;28;20278;-75
2021/12/14 09:47:33;;;;;;;10.10;3.90;;;;;;;4.00;100.00;97184.38;20398166;28;20047;-75
2021/12/14 09:57:38;;;;;;;9.73;4.33;;;;;;;4.10;100.00;97181.22;20411170;28;20081;-76
2021/12/14 10:07:39;;;;;;;12.25;4.20;;;;;;;4.28;100.00;97169.09;20423337;28;20315;-76
2021/12/14 10:17:42;;;;;;;11.73;4.85;;;;;;;4.43;100.00;97172.09;20444626;28;20058;-76
2021/12/14 10:27:43;;;;;;;12.02;5.53;;;;;;;4.55;100.00;97167.69;20423382;28;20049;-75
2021/12/14 10:48:26;;;;;;;16.83;7.93;;;;;;;4.74;100.00;97157.94;20371565;28;20060;-75
2021/12/14 10:58:28;;;;;;;17.10;8.52;;;;;;;4.65;100.00;97151.41;20445065;28;20125;-75
2021/12/14 11:08:48;;;;;;;20.27;10.00;;;;;;;4.53;100.00;97161.06;20412363;28;20055;-76
2021/12/14 11:18:49;;;;;;;21.98;11.05;;;;;;;4.78;100.00;97168.75;20400948;28;20419;-74
2021/12/14 11:29:01;;;;;;;20.67;10.15;;;;;;;4.77;100.00;97165.34;20397452;28;20039;-75
2021/12/14 11:49:56;;;;;;;22.63;11.23;;;;;;;4.88;100.00;97155.06;20412922;28;20046;-76
2021/12/14 12:00:09;;;;;;;20.88;11.02;;;;;;;4.85;100.00;97145.84;20433852;28;20122;-75
2021/12/14 12:20:42;;;;;;;16.90;9.57;;;;;;;5.22;100.00;97114.88;20383661;28;20051;-75
2021/12/14 12:30:46;;;;;;;;;;;;;;;5.40;100.00;97110.53;20408388;28;20724;-75
2021/12/14 12:40:55;;;;;;;20.17;11.45;;;;;;;5.52;100.00;97105.25;20416281;28;19924;-74
2021/12/14 12:50:56;;;;;;;18.20;9.63;;;;;;;5.46;100.00;97114.88;20417709;28;20648;-75
2021/12/14 13:00:59;;;;;;;19.13;10.13;;;;;;;5.41;100.00;97131.34;20390904;28;20053;-75
2021/12/14 13:11:21;;;;;;;20.45;10.88;;;;;;;5.31;100.00;97131.13;20409290;28;20774;-75
2021/12/14 13:21:27;;;;;;;26.65;13.70;;;;;;;5.22;100.00;97148.25;20434349;28;20688;-76
2021/12/14 13:31:32;;;;;;;24.97;12.50;;;;;;;5.23;100.00;97141.94;20413644;28;20057;-76
2021/12/14 13:42:03;;;;;;;22.90;12.02;;;;;;;5.18;100.00;97141.84;20406872;28;20042;-76
2021/12/14 13:52:07;;;;;;;28.13;14.55;;;;;;;5.20;100.00;97139.78;20400253;28;20166;-76
2021/12/14 14:02:07;;;;;;;26.65;12.27;;;;;;;5.22;100.00;97149.03;20416884;28;20058;-76
2021/12/14 14:12:14;;;;;;;24.33;12.32;;;;;;;5.17;100.00;97158.63;20434227;28;20387;-76
2021/12/14 14:22:18;;;;;;;30.25;12.98;;;;;;;5.21;100.00;97172.91;20397521;28;20062;-76
2021/12/14 14:32:51;;;;;;;25.30;11.55;;;;;;;5.14;100.00;97172.22;20397122;28;20051;-75
2021/12/14 14:42:54;;;;;;;22.83;11.73;;;;;;;5.12;100.00;97179.53;20443365;28;20467;-76
2021/12/14 14:53:02;;;;;;;25.08;11.55;;;;;;;5.03;100.00;97177.25;20418364;28;20210;-77
2021/12/14 15:03:07;;;;;;;26.17;12.82;;;;;;;4.91;100.00;97184.31;20446345;28;20047;-75
2021/12/14 15:13:32;;;;;;;24.95;12.73;;;;;;;4.90;100.00;97192.41;20451351;28;20041;-76
2021/12/14 15:23:32;;;;;;;23.58;12.07;;;;;;;4.88;100.00;97205.75;20438292;28;20244;-75
2021/12/14 15:33:38;;;;;;;28.27;11.27;;;;;;;4.82;100.00;97209.28;20457522;28;20340;-76
2021/12/14 15:43:47;;;;;;;28.30;13.00;;;;;;;4.74;100.00;97210.41;20413357;28;20042;-75
2021/12/14 15:53:59;;;;;;;24.70;12.63;;;;;;;4.71;100.00;97217.94;20431790;28;20294;-77
2021/12/14 16:04:04;;;;;;;25.42;12.40;;;;;;;4.69;100.00;97222.59;20439329;28;20050;-75
2021/12/14 16:24:28;;;;;;;30.92;14.15;;;;;;;4.61;100.00;97234.22;20431358;28;20046;-75
2021/12/14 16:34:34;;;;;;;31.15;13.60;;;;;;;4.62;100.00;97248.94;20396178;28;20526;-75
2021/12/14 16:44:39;;;;;;;28.97;14.50;;;;;;;4.59;100.00;97254.63;20412151;28;20047;-76
2021/12/14 16:54:46;;;;;;;29.35;15.48;;;;;;;4.61;100.00;97252.59;20414800;28;20710;-75
2021/12/14 17:04:50;;;;;;;36.33;15.18;;;;;;;4.61;100.00;97257.84;20411202;28;20043;-75
2021/12/14 17:14:57;;;;;;;29.55;13.77;;;;;;;4.56;100.00;97263.75;20388437;28;20708;-77
2021/12/14 17:25:10;;;;;;;31.23;15.07;;;;;;;4.55;100.00;97269.22;20404893;28;20137;-76
2021/12/14 17:35:16;;;;;;;33.03;15.88;;;;;;;4.62;100.00;97294.34;20425761;28;20439;-76
2021/12/14 17:45:27;;;;;;;28.23;14.70;;;;;;;4.59;100.00;97289.53;20405883;28;20043;-76
2021/12/14 17:55:34;;;;;;;36.88;19.20;;;;;;;4.64;100.00;97283.66;20395974;28;20102;-76
2021/12/14 18:05:47;;;;;;;27.13;13.07;;;;;;;4.54;100.00;97284.16;20421098;28;20059;-76
2021/12/14 18:16:01;;;;;;;35.67;14.35;;;;;;;4.54;100.00;97296.50;20414395;28;20451;-77
2021/12/14 18:26:21;;;;;;;33.58;18.25;;;;;;;4.52;100.00;97307.19;20443437;28;20052;-78
2021/12/14 18:36:33;;;;;;;33.10;16.52;;;;;;;4.52;100.00;97301.16;20417546;28;20675;-77
2021/12/14 18:46:47;;;;;;;44.10;17.45;;;;;;;4.49;100.00;97318.13;20419088;28;20058;-76
2021/12/14 18:56:53;;;;;;;32.20;16.17;;;;;;;4.52;100.00;97315.06;20414303;28;20788;-76
2021/12/14 19:06:55;;;;;;;43.63;17.93;;;;;;;4.50;100.00;97308.44;20447806;28;20046;-76
2021/12/14 19:16:58;;;;;;;43.58;19.33;;;;;;;4.49;100.00;97314.69;20422339;28;20055;-76
2021/12/14 19:27:12;;;;;;;44.20;18.15;;;;;;;4.50;100.00;97324.97;20413018;28;20133;-76
2021/12/14 19:37:20;;;;;;;33.55;16.48;;;;;;;4.52;100.00;97338.69;20474620;28;20050;-77
2021/12/14 19:47:26;;;;;;;42.63;16.70;;;;;;;4.51;100.00;97342.31;20445032;28;20924;-76
2021/12/14 19:57:30;;;;;;;38.93;19.67;;;;;;;4.55;100.00;97345.31;20400653;28;20047;-76
2021/12/14 20:07:33;;;;;;;41.10;17.92;;;;;;;4.63;100.00;97343.19;20335801;28;20423;-75
2021/12/14 20:17:45;;;;;;;43.80;20.23;;;;;;;4.54;100.00;97346.34;20369322;28;20039;-76
2021/12/14 20:27:54;;;;;;;40.95;19.25;;;;;;;4.54;100.00;97341.88;20405598;28;20052;-75
2021/12/14 20:38:12;;;;;;;48.25;20.10;;;;;;;4.49;100.00;97340.94;20421195;28;20074;-75
2021/12/14 20:48:16;;;;;;;46.03;20.08;;;;;;;4.47;100.00;97350.84;20417159;28;20058;-76
2021/12/14 20:58:30;;;;;;;51.55;20.92;;;;;;;4.44;100.00;97352.09;20368706;28;20051;-74
2021/12/14 21:08:33;;;;;;;39.05;18.88;;;;;;;4.43;100.00;97345.22;20400523;28;20051;-74
2021/12/14 21:18:39;;;;;;;42.42;19.42;;;;;;;4.44;100.00;97341.59;20413613;28;20074;-74
2021/12/14 21:28:42;;;;;;;;;;;;;;;4.42;100.00;97359.38;20418811;28;20051;-74
2021/12/14 21:38:45;;;;;;;40.25;18.15;;;;;;;4.46;100.00;97365.00;20407441;28;19931;-74
2021/12/14 21:48:51;;;;;;;49.20;20.63;;;;;;;4.54;100.00;97369.97;20407805;28;20055;-74
2021/12/14 21:58:53;;;;;;;40.15;18.67;;;;;;;4.52;100.00;97375.41;20427881;28;20036;-76
2021/12/14 22:08:53;;;;;;;48.17;20.63;;;;;;;4.48;100.00;97373.47;20423617;28;20504;-74
2021/12/14 22:18:54;;;;;;;41.72;18.23;;;;;;;4.49;100.00;97388.97;20385013;28;20563;-73
2021/12/14 22:28:56;;;;;;;41.42;18.42;;;;;;;4.47;100.00;97398.88;20394266;28;20042;-74
2021/12/14 22:38:56;;;;;;;40.92;17.98;;;;;;;4.49;100.00;97398.66;20426418;28;20055;-74
2021/12/14 22:49:01;;;;;;;51.42;17.88;;;;;;;4.47;100.00;97404.13;20451504;28;20079;-74
2021/12/14 22:59:03;;;;;;;43.67;18.88;;;;;;;4.47;100.00;97400.69;20462268;28;20038;-74
2021/12/14 23:09:07;;;;;;;60.78;19.50;;;;;;;4.47;100.00;97398.06;20562365;23;20137;-73
2021/12/14 23:19:29;;;;;;;49.15;17.48;;;;;;;4.47;100.00;97404.13;20507497;28;20366;-74
2021/12/14 23:29:29;;;;;;;45.70;18.95;;;;;;;4.49;100.00;97398.66;20537543;28;20120;-74
2021/12/14 23:39:29;;;;;;;41.08;17.40;;;;;;;4.48;100.00;97410.97;20514899;28;20035;-74
2021/12/14 23:49:30;;;;;;;45.10;18.05;;;;;;;4.51;100.00;97415.78;20548604;28;20056;-73
2021/12/14 23:59:30;;;;;;;146.35;22.45;;;;;;;4.48;100.00;97405.75;20510106;28;20526;-74
